Samsara — 9HA4388 — position and weather

sailwx.info

Track history (hours):
 
Tides and Currents Weather Stations Pressure Air Temp Water Temp Dewpoint Dewpoint Depression Visibility Wind Speed Wind Dir Waves Ship Positions

Samsara

Last reported at 2017-Oct-17 01:26 UTC. Time now 2017-Oct-17 15:13 UTC.
Position N 37°28' E 025°56'.

Length 274 m; draft 15.8 m.

Type: Tanker. MMSI: 249820000.

Date/timePositionNaut miles runAvg speedWind from/ knotsBaromVisibWave heightAir tempDewpointWater temp
2017-Oct-17 01:26N 37°28' E 025°56'511.5
2017-Oct-17 01:01N 37°32' E 025°53'611.0
2017-Oct-17 00:29N 37°37' E 025°51'511.1
2017-Oct-17 00:01N 37°42' E 025°48'611.3
2017-Oct-16 23:29N 37°48' E 025°45'  
2017-Oct-11 00:00N 44°35' E 037°54'0 0.0
2017-Oct-10 23:30N 44°35' E 037°54'0 0.0
2017-Oct-10 23:00N 44°35' E 037°54'0 0.0
2017-Oct-10 22:30N 44°35' E 037°54'0 0.0
2017-Oct-10 22:00N 44°35' E 037°54'0 0.0
2017-Oct-10 21:30N 44°35' E 037°54'0 0.0
2017-Oct-10 21:00N 44°35' E 037°54'0 0.0
2017-Oct-10 20:30N 44°35' E 037°54'0 0.0
2017-Oct-10 19:57N 44°35' E 037°54'0 0.0
2017-Oct-10 19:30N 44°35' E 037°54'0 0.0
2017-Oct-10 19:00N 44°35' E 037°54'0 0.0
2017-Oct-10 18:18N 44°35' E 037°54'0 0.0
2017-Oct-10 18:00N 44°35' E 037°54'0 0.0
2017-Oct-10 17:30N 44°35' E 037°54'0 0.4
2017-Oct-10 17:00N 44°35' E 037°54'1 1.1
2017-Oct-10 16:30N 44°35' E 037°53'3 5.2
2017-Oct-10 16:00N 44°35' E 037°50'4 9.0
2017-Oct-10 15:30N 44°36' E 037°44'1 2.1
2017-Oct-10 15:00N 44°36' E 037°42'1 0.9
2017-Oct-10 14:00N 44°35' E 037°41'0 0.4
2017-Oct-10 13:30N 44°35' E 037°41'0 0.4
2017-Oct-10 13:00N 44°35' E 037°41'0 0.9
2017-Oct-10 12:30N 44°35' E 037°40'1 2.1
2017-Oct-10 12:00N 44°35' E 037°39'2 2.9
2017-Oct-10 11:25N 44°37' E 037°37'1 0.1
2017-Oct-09 14:13N 44°38' E 037°37'0 0.6
2017-Oct-09 13:59N 44°38' E 037°37'1 1.5
2017-Oct-09 13:30N 44°39' E 037°37'3 5.2
2017-Oct-09 13:00N 44°36' E 037°35'2 3.5
2017-Oct-09 12:30N 44°35' E 037°37'0 0.8
2017-Oct-09 12:00N 44°35' E 037°37'1 2.7
2017-Oct-09 11:30N 44°35' E 037°39'4 8.4
2017-Oct-09 11:00N 44°35' E 037°44'5 9.0
2017-Oct-09 10:30N 44°35' E 037°51'2 4.9
2017-Oct-09 10:00N 44°35' E 037°54'0 0.2
2017-Oct-09 09:29N 44°35' E 037°54'0 0.0
2017-Oct-09 08:59N 44°35' E 037°54'0 0.0
2017-Oct-09 08:29N 44°35' E 037°54'0 0.8
2017-Oct-09 08:00N 44°34' E 037°54'2 5.0
2017-Oct-09 07:30N 44°34' E 037°51'4 7.1
2017-Oct-09 07:00N 44°34' E 037°46'2 3.2
2017-Oct-09 06:30N 44°34' E 037°44'1 1.6
2017-Oct-09 05:55N 44°33' E 037°43'1 1.5
2017-Oct-09 05:30N 44°32' E 037°43'1 1.4
2017-Oct-09 04:52N 44°31' E 037°43'1 1.7
2017-Oct-09 04:30N 44°31' E 037°43'1 2.0
2017-Oct-09 04:00N 44°31' E 037°44'2 3.8
2017-Oct-09 03:30N 44°33' E 037°45'2 3.2
2017-Oct-09 03:00N 44°34' E 037°44'1 1.8
2017-Oct-09 02:28N 44°33' E 037°43'1 2.7
2017-Oct-09 02:01N 44°32' E 037°43'2 4.0
2017-Oct-09 01:31N 44°30' E 037°44'2 3.4
2017-Oct-09 01:00N 44°29' E 037°42'1 1.1
2017-Oct-09 00:28N 44°29' E 037°41'1 0.9
2017-Oct-08 23:10N 44°30' E 037°41'0 0.1
2017-Oct-08 22:49N 44°30' E 037°41'1 0.8
2017-Oct-08 21:04N 44°30' E 037°43'0 1.1
2017-Oct-08 20:46N 44°30' E 037°43'0 1.1
2017-Oct-08 20:28N 44°30' E 037°44'1 1.5
2017-Oct-08 19:55N 44°30' E 037°45'1 2.3
2017-Oct-08 19:29N 44°31' E 037°45'2 4.7
2017-Oct-08 19:00N 44°33' E 037°44'2 2.9
2017-Oct-08 18:19N 44°34' E 037°42'0 1.4
2017-Oct-08 17:58N 44°34' E 037°43'1 2.7
2017-Oct-08 17:31N 44°33' E 037°44'1 3.0
2017-Oct-08 17:00N 44°32' E 037°45'2 3.1
2017-Oct-08 16:30N 44°31' E 037°46'1 1.6
2017-Oct-08 16:00N 44°31' E 037°45'1 1.8
2017-Oct-08 15:30N 44°32' E 037°45'2 3.2
2017-Oct-08 15:00N 44°33' E 037°44'1 2.6
2017-Oct-08 14:30N 44°35' E 037°43'1 2.4
2017-Oct-08 14:00N 44°33' E 037°44'2 3.0
2017-Oct-08 13:30N 44°32' E 037°45'2 3.1
2017-Oct-08 13:00N 44°31' E 037°46'1 2.1
2017-Oct-08 12:30N 44°30' E 037°47'2 3.7
2017-Oct-08 12:01N 44°32' E 037°46'2 4.5
2017-Oct-08 11:30N 44°34' E 037°45'1 1.6
2017-Oct-08 11:01N 44°34' E 037°44'1 2.7
2017-Oct-08 10:30N 44°33' E 037°44'1 1.2
2017-Oct-08 10:00N 44°33' E 037°44'2 3.9
2017-Oct-08 09:30N 44°33' E 037°41'1 2.1
2017-Oct-08 09:01N 44°34' E 037°40'2 3.4
2017-Oct-08 08:30N 44°35' E 037°38'1 1.3
2017-Oct-08 08:01N 44°35' E 037°37'1 2.9
2017-Oct-08 07:31N 44°35' E 037°39'2 3.1
2017-Oct-08 07:01N 44°35' E 037°41'2 3.3
2017-Oct-08 06:31N 44°34' E 037°43'1 2.8
2017-Oct-08 06:00N 44°33' E 037°45'0 0.8
2017-Oct-08 05:30N 44°33' E 037°45'1 2.7
2017-Oct-08 05:01N 44°35' E 037°45'1 2.2
2017-Oct-08 04:27N 44°36' E 037°45'1 0.9
2017-Oct-08 03:51N 44°36' E 037°46'0 0.9
2017-Oct-08 03:30N 44°35' E 037°46'0 0.7
2017-Oct-08 03:00N 44°35' E 037°47'0 0.4
2017-Oct-08 02:30N 44°35' E 037°47'0 0.7
2017-Oct-08 01:57N 44°36' E 037°47'1 1.8
2017-Oct-08 01:30N 44°36' E 037°46'2 4.1
2017-Oct-08 01:00N 44°36' E 037°43'0 0.7
2017-Oct-08 00:30N 44°37' E 037°43'0 0.5
2017-Oct-08 00:00N 44°37' E 037°44'0 0.6
2017-Oct-07 23:30N 44°36' E 037°44'0 0.8
2017-Oct-07 23:00N 44°36' E 037°44'0 0.8
2017-Oct-07 22:30N 44°36' E 037°45'0 0.8
2017-Oct-07 21:57N 44°36' E 037°45'0 0.7
2017-Oct-07 21:27N 44°36' E 037°46'0 0.6
2017-Oct-07 21:00N 44°36' E 037°46'1 1.1
2017-Oct-07 20:31N 44°36' E 037°47'2 3.6
2017-Oct-07 19:59N 44°38' E 037°48'0 0.7
2017-Oct-07 19:29N 44°37' E 037°48'0 0.4
2017-Oct-07 18:59N 44°37' E 037°48'0 0.2
2017-Oct-07 18:29N 44°37' E 037°48'0 0.2
2017-Oct-07 17:59N 44°37' E 037°48'0 0.4
2017-Oct-07 17:29N 44°37' E 037°48'0 0.7
2017-Oct-07 16:56N 44°36' E 037°48'0 0.6
2017-Oct-07 16:29N 44°36' E 037°48'0 0.5
2017-Oct-07 15:59N 44°36' E 037°48'0 0.1
2017-Oct-07 15:29N 44°36' E 037°47'0 0.5
2017-Oct-07 14:59N 44°36' E 037°47'1 1.2
2017-Oct-07 14:30N 44°37' E 037°47'1 1.5
2017-Oct-07 14:00N 44°37' E 037°46'0 0.8
2017-Oct-07 13:30N 44°37' E 037°46'1 1.2
2017-Oct-07 13:00N 44°36' E 037°45'1 2.9
2017-Oct-07 12:30N 44°36' E 037°43'2 4.2
2017-Oct-07 12:00N 44°35' E 037°40'5 9.6
2017-Oct-07 11:30N 44°32' E 037°36'714.9
2017-Oct-07 11:01N 44°26' E 037°30'1511.9
2017-Oct-07 09:46N 44°19' E 037°12'614.5
2017-Oct-07 09:19N 44°16' E 037°04'715.1
2017-Oct-07 08:53N 44°12' E 036°56'615.2
2017-Oct-07 08:31N 44°09' E 036°49'815.6
2017-Oct-07 08:01N 44°06' E 036°39'815.5
2017-Oct-07 07:30N 44°02' E 036°30'815.4
2017-Oct-07 07:00N 43°59' E 036°20'6715.4
2017-Oct-07 02:39N 43°28' E 034°58'614.9
2017-Oct-07 02:16N 43°25' E 034°51'  
Track history (hours):
 
Tides and Currents Weather Stations Pressure Air Temp Water Temp Dewpoint Dewpoint Depression Visibility Wind Speed Wind Dir Waves Ship Positions

Samsara

Last reported at 2017-Oct-17 01:26 UTC. Time now 2017-Oct-17 15:13 UTC.
Position N 37°28' E 025°56'.

Length 274 m; draft 15.8 m.

Type: Tanker. MMSI: 249820000.

Date/timePositionNaut miles runAvg speedWind from/ knotsBaromVisibWave heightAir tempDewpointWater temp
2017-Oct-17 01:26N 37°28' E 025°56'511.5
2017-Oct-17 01:01N 37°32' E 025°53'611.0
2017-Oct-17 00:29N 37°37' E 025°51'511.1
2017-Oct-17 00:01N 37°42' E 025°48'611.3
2017-Oct-16 23:29N 37°48' E 025°45'  
2017-Oct-11 00:00N 44°35' E 037°54'0 0.0
2017-Oct-10 23:30N 44°35' E 037°54'0 0.0
2017-Oct-10 23:00N 44°35' E 037°54'0 0.0
2017-Oct-10 22:30N 44°35' E 037°54'0 0.0
2017-Oct-10 22:00N 44°35' E 037°54'0 0.0
2017-Oct-10 21:30N 44°35' E 037°54'0 0.0
2017-Oct-10 21:00N 44°35' E 037°54'0 0.0
2017-Oct-10 20:30N 44°35' E 037°54'0 0.0
2017-Oct-10 19:57N 44°35' E 037°54'0 0.0
2017-Oct-10 19:30N 44°35' E 037°54'0 0.0
2017-Oct-10 19:00N 44°35' E 037°54'0 0.0
2017-Oct-10 18:18N 44°35' E 037°54'0 0.0
2017-Oct-10 18:00N 44°35' E 037°54'0 0.0
2017-Oct-10 17:30N 44°35' E 037°54'0 0.4
2017-Oct-10 17:00N 44°35' E 037°54'1 1.1
2017-Oct-10 16:30N 44°35' E 037°53'3 5.2
2017-Oct-10 16:00N 44°35' E 037°50'4 9.0
2017-Oct-10 15:30N 44°36' E 037°44'1 2.1
2017-Oct-10 15:00N 44°36' E 037°42'1 0.9
2017-Oct-10 14:00N 44°35' E 037°41'0 0.4
2017-Oct-10 13:30N 44°35' E 037°41'0 0.4
2017-Oct-10 13:00N 44°35' E 037°41'0 0.9
2017-Oct-10 12:30N 44°35' E 037°40'1 2.1
2017-Oct-10 12:00N 44°35' E 037°39'2 2.9
2017-Oct-10 11:25N 44°37' E 037°37'1 0.1
2017-Oct-09 14:13N 44°38' E 037°37'0 0.6
2017-Oct-09 13:59N 44°38' E 037°37'1 1.5
2017-Oct-09 13:30N 44°39' E 037°37'3 5.2
2017-Oct-09 13:00N 44°36' E 037°35'2 3.5
2017-Oct-09 12:30N 44°35' E 037°37'0 0.8
2017-Oct-09 12:00N 44°35' E 037°37'1 2.7
2017-Oct-09 11:30N 44°35' E 037°39'4 8.4
2017-Oct-09 11:00N 44°35' E 037°44'5 9.0
2017-Oct-09 10:30N 44°35' E 037°51'2 4.9
2017-Oct-09 10:00N 44°35' E 037°54'0 0.2
2017-Oct-09 09:29N 44°35' E 037°54'0 0.0
2017-Oct-09 08:59N 44°35' E 037°54'0 0.0
2017-Oct-09 08:29N 44°35' E 037°54'0 0.8
2017-Oct-09 08:00N 44°34' E 037°54'2 5.0
2017-Oct-09 07:30N 44°34' E 037°51'4 7.1
2017-Oct-09 07:00N 44°34' E 037°46'2 3.2
2017-Oct-09 06:30N 44°34' E 037°44'1 1.6
2017-Oct-09 05:55N 44°33' E 037°43'1 1.5
2017-Oct-09 05:30N 44°32' E 037°43'1 1.4
2017-Oct-09 04:52N 44°31' E 037°43'1 1.7
2017-Oct-09 04:30N 44°31' E 037°43'1 2.0
2017-Oct-09 04:00N 44°31' E 037°44'2 3.8
2017-Oct-09 03:30N 44°33' E 037°45'2 3.2
2017-Oct-09 03:00N 44°34' E 037°44'1 1.8
2017-Oct-09 02:28N 44°33' E 037°43'1 2.7
2017-Oct-09 02:01N 44°32' E 037°43'2 4.0
2017-Oct-09 01:31N 44°30' E 037°44'2 3.4
2017-Oct-09 01:00N 44°29' E 037°42'1 1.1
2017-Oct-09 00:28N 44°29' E 037°41'1 0.9
2017-Oct-08 23:10N 44°30' E 037°41'0 0.1
2017-Oct-08 22:49N 44°30' E 037°41'1 0.8
2017-Oct-08 21:04N 44°30' E 037°43'0 1.1
2017-Oct-08 20:46N 44°30' E 037°43'0 1.1
2017-Oct-08 20:28N 44°30' E 037°44'1 1.5
2017-Oct-08 19:55N 44°30' E 037°45'1 2.3
2017-Oct-08 19:29N 44°31' E 037°45'2 4.7
2017-Oct-08 19:00N 44°33' E 037°44'2 2.9
2017-Oct-08 18:19N 44°34' E 037°42'0 1.4
2017-Oct-08 17:58N 44°34' E 037°43'1 2.7
2017-Oct-08 17:31N 44°33' E 037°44'1 3.0
2017-Oct-08 17:00N 44°32' E 037°45'2 3.1
2017-Oct-08 16:30N 44°31' E 037°46'1 1.6
2017-Oct-08 16:00N 44°31' E 037°45'1 1.8
2017-Oct-08 15:30N 44°32' E 037°45'2 3.2
2017-Oct-08 15:00N 44°33' E 037°44'1 2.6
2017-Oct-08 14:30N 44°35' E 037°43'1 2.4
2017-Oct-08 14:00N 44°33' E 037°44'2 3.0
2017-Oct-08 13:30N 44°32' E 037°45'2 3.1
2017-Oct-08 13:00N 44°31' E 037°46'1 2.1
2017-Oct-08 12:30N 44°30' E 037°47'2 3.7
2017-Oct-08 12:01N 44°32' E 037°46'2 4.5
2017-Oct-08 11:30N 44°34' E 037°45'1 1.6
2017-Oct-08 11:01N 44°34' E 037°44'1 2.7
2017-Oct-08 10:30N 44°33' E 037°44'1 1.2
2017-Oct-08 10:00N 44°33' E 037°44'2 3.9
2017-Oct-08 09:30N 44°33' E 037°41'1 2.1
2017-Oct-08 09:01N 44°34' E 037°40'2 3.4
2017-Oct-08 08:30N 44°35' E 037°38'1 1.3
2017-Oct-08 08:01N 44°35' E 037°37'1 2.9
2017-Oct-08 07:31N 44°35' E 037°39'2 3.1
2017-Oct-08 07:01N 44°35' E 037°41'2 3.3
2017-Oct-08 06:31N 44°34' E 037°43'1 2.8
2017-Oct-08 06:00N 44°33' E 037°45'0 0.8
2017-Oct-08 05:30N 44°33' E 037°45'1 2.7
2017-Oct-08 05:01N 44°35' E 037°45'1 2.2
2017-Oct-08 04:27N 44°36' E 037°45'1 0.9
2017-Oct-08 03:51N 44°36' E 037°46'0 0.9
2017-Oct-08 03:30N 44°35' E 037°46'0 0.7
2017-Oct-08 03:00N 44°35' E 037°47'0 0.4
2017-Oct-08 02:30N 44°35' E 037°47'0 0.7
2017-Oct-08 01:57N 44°36' E 037°47'1 1.8
2017-Oct-08 01:30N 44°36' E 037°46'2 4.1
2017-Oct-08 01:00N 44°36' E 037°43'0 0.7
2017-Oct-08 00:30N 44°37' E 037°43'0 0.5
2017-Oct-08 00:00N 44°37' E 037°44'0 0.6
2017-Oct-07 23:30N 44°36' E 037°44'0 0.8
2017-Oct-07 23:00N 44°36' E 037°44'0 0.8
2017-Oct-07 22:30N 44°36' E 037°45'0 0.8
2017-Oct-07 21:57N 44°36' E 037°45'0 0.7
2017-Oct-07 21:27N 44°36' E 037°46'0 0.6
2017-Oct-07 21:00N 44°36' E 037°46'1 1.1
2017-Oct-07 20:31N 44°36' E 037°47'2 3.6
2017-Oct-07 19:59N 44°38' E 037°48'0 0.7
2017-Oct-07 19:29N 44°37' E 037°48'0 0.4
2017-Oct-07 18:59N 44°37' E 037°48'0 0.2
2017-Oct-07 18:29N 44°37' E 037°48'0 0.2
2017-Oct-07 17:59N 44°37' E 037°48'0 0.4
2017-Oct-07 17:29N 44°37' E 037°48'0 0.7
2017-Oct-07 16:56N 44°36' E 037°48'0 0.6
2017-Oct-07 16:29N 44°36' E 037°48'0 0.5
2017-Oct-07 15:59N 44°36' E 037°48'0 0.1
2017-Oct-07 15:29N 44°36' E 037°47'0 0.5
2017-Oct-07 14:59N 44°36' E 037°47'1 1.2
2017-Oct-07 14:30N 44°37' E 037°47'1 1.5
2017-Oct-07 14:00N 44°37' E 037°46'0 0.8
2017-Oct-07 13:30N 44°37' E 037°46'1 1.2
2017-Oct-07 13:00N 44°36' E 037°45'1 2.9
2017-Oct-07 12:30N 44°36' E 037°43'2 4.2
2017-Oct-07 12:00N 44°35' E 037°40'5 9.6
2017-Oct-07 11:30N 44°32' E 037°36'714.9
2017-Oct-07 11:01N 44°26' E 037°30'1511.9
2017-Oct-07 09:46N 44°19' E 037°12'614.5
2017-Oct-07 09:19N 44°16' E 037°04'715.1
2017-Oct-07 08:53N 44°12' E 036°56'615.2
2017-Oct-07 08:31N 44°09' E 036°49'815.6
2017-Oct-07 08:01N 44°06' E 036°39'815.5
2017-Oct-07 07:30N 44°02' E 036°30'815.4
2017-Oct-07 07:00N 43°59' E 036°20'6715.4
2017-Oct-07 02:39N 43°28' E 034°58'614.9
2017-Oct-07 02:16N 43°25' E 034°51'  

Dump ship's entire track history